sensor_id;sensor_type;location;lat;lon;timestamp;temperature;humidity
1830;DHT22;914;48.118;11.600;2022-07-06T00:01:37;22.60;81.00
1830;DHT22;914;48.118;11.600;2022-07-06T00:04:04;22.60;80.30
1830;DHT22;914;48.118;11.600;2022-07-06T00:06:30;22.60;80.60
1830;DHT22;914;48.118;11.600;2022-07-06T00:08:56;22.60;80.50
1830;DHT22;914;48.118;11.600;2022-07-06T00:11:22;22.60;80.90
1830;DHT22;914;48.118;11.600;2022-07-06T00:13:48;22.70;81.00
1830;DHT22;914;48.118;11.600;2022-07-06T00:16:14;22.60;80.90
1830;DHT22;914;48.118;11.600;2022-07-06T00:18:39;22.70;80.70
1830;DHT22;914;48.118;11.600;2022-07-06T00:21:05;22.70;81.10
1830;DHT22;914;48.118;11.600;2022-07-06T00:23:31;22.60;80.60
1830;DHT22;914;48.118;11.600;2022-07-06T00:25:57;22.60;80.80
1830;DHT22;914;48.118;11.600;2022-07-06T00:28:22;22.60;81.00
1830;DHT22;914;48.118;11.600;2022-07-06T00:30:48;22.50;81.70
1830;DHT22;914;48.118;11.600;2022-07-06T00:33:14;22.40;82.70
1830;DHT22;914;48.118;11.600;2022-07-06T00:35:39;22.40;82.50
1830;DHT22;914;48.118;11.600;2022-07-06T00:38:05;22.40;82.50
1830;DHT22;914;48.118;11.600;2022-07-06T00:40:30;22.40;82.70
1830;DHT22;914;48.118;11.600;2022-07-06T00:42:56;22.40;83.10
1830;DHT22;914;48.118;11.600;2022-07-06T00:45:22;22.50;82.90
1830;DHT22;914;48.118;11.600;2022-07-06T00:47:48;22.40;83.30
1830;DHT22;914;48.118;11.600;2022-07-06T00:50:16;22.30;83.60
1830;DHT22;914;48.118;11.600;2022-07-06T00:52:53;22.30;84.30
1830;DHT22;914;48.118;11.600;2022-07-06T00:55:24;22.20;84.90
1830;DHT22;914;48.118;11.600;2022-07-06T00:57:51;22.20;85.20
1830;DHT22;914;48.118;11.600;2022-07-06T01:00:19;22.10;85.80
1830;DHT22;914;48.118;11.600;2022-07-06T01:02:45;22.00;86.40
1830;DHT22;914;48.118;11.600;2022-07-06T01:05:13;21.90;86.80
1830;DHT22;914;48.118;11.600;2022-07-06T01:07:40;22.00;86.70
1830;DHT22;914;48.118;11.600;2022-07-06T01:10:07;22.00;88.00
1830;DHT22;914;48.118;11.600;2022-07-06T01:12:37;22.00;87.00
1830;DHT22;914;48.118;11.600;2022-07-06T01:15:05;22.00;87.40
1830;DHT22;914;48.118;11.600;2022-07-06T01:17:31;22.00;87.40
1830;DHT22;914;48.118;11.600;2022-07-06T01:19:57;22.00;87.30
1830;DHT22;914;48.118;11.600;2022-07-06T01:22:23;22.00;87.60
1830;DHT22;914;48.118;11.600;2022-07-06T01:24:48;21.90;88.40
1830;DHT22;914;48.118;11.600;2022-07-06T01:27:14;21.90;88.30
1830;DHT22;914;48.118;11.600;2022-07-06T01:29:40;21.80;88.10
1830;DHT22;914;48.118;11.600;2022-07-06T01:32:06;21.80;88.50
1830;DHT22;914;48.118;11.600;2022-07-06T01:34:32;21.80;88.10
1830;DHT22;914;48.118;11.600;2022-07-06T01:36:57;21.80;88.00
1830;DHT22;914;48.118;11.600;2022-07-06T01:39:23;21.80;87.90
1830;DHT22;914;48.118;11.600;2022-07-06T01:41:49;21.80;87.90
1830;DHT22;914;48.118;11.600;2022-07-06T01:44:15;21.80;87.90
1830;DHT22;914;48.118;11.600;2022-07-06T01:46:40;21.80;87.90
1830;DHT22;914;48.118;11.600;2022-07-06T01:49:06;21.80;88.40
1830;DHT22;914;48.118;11.600;2022-07-06T01:51:32;21.70;88.80
1830;DHT22;914;48.118;11.600;2022-07-06T01:53:57;21.60;88.50
1830;DHT22;914;48.118;11.600;2022-07-06T01:56:23;21.60;88.70
1830;DHT22;914;48.118;11.600;2022-07-06T01:58:49;21.50;88.90
1830;DHT22;914;48.118;11.600;2022-07-06T02:01:18;21.50;89.00
1830;DHT22;914;48.118;11.600;2022-07-06T02:03:44;21.40;89.60
1830;DHT22;914;48.118;11.600;2022-07-06T02:06:11;21.30;89.90
1830;DHT22;914;48.118;11.600;2022-07-06T02:08:41;21.30;90.10
1830;DHT22;914;48.118;11.600;2022-07-06T02:11:07;21.20;90.40
1830;DHT22;914;48.118;11.600;2022-07-06T02:13:34;21.20;90.40
1830;DHT22;914;48.118;11.600;2022-07-06T02:16:00;21.20;90.50
1830;DHT22;914;48.118;11.600;2022-07-06T02:18:25;21.20;90.50
1830;DHT22;914;48.118;11.600;2022-07-06T02:20:51;21.10;90.80
1830;DHT22;914;48.118;11.600;2022-07-06T02:23:17;21.10;90.80
1830;DHT22;914;48.118;11.600;2022-07-06T02:25:43;21.00;91.00
1830;DHT22;914;48.118;11.600;2022-07-06T02:28:08;21.00;91.40
1830;DHT22;914;48.118;11.600;2022-07-06T02:30:34;20.90;91.40
1830;DHT22;914;48.118;11.600;2022-07-06T02:33:00;20.90;91.30
1830;DHT22;914;48.118;11.600;2022-07-06T02:35:26;20.80;91.30
1830;DHT22;914;48.118;11.600;2022-07-06T02:37:51;20.70;91.60
1830;DHT22;914;48.118;11.600;2022-07-06T02:40:17;20.70;91.40
1830;DHT22;914;48.118;11.600;2022-07-06T02:42:42;20.70;91.70
1830;DHT22;914;48.118;11.600;2022-07-06T02:45:09;20.60;91.70
1830;DHT22;914;48.118;11.600;2022-07-06T02:47:35;20.60;91.60
1830;DHT22;914;48.118;11.600;2022-07-06T02:50:00;20.60;91.90
1830;DHT22;914;48.118;11.600;2022-07-06T02:52:26;20.60;91.90
1830;DHT22;914;48.118;11.600;2022-07-06T02:54:52;20.60;91.90
1830;DHT22;914;48.118;11.600;2022-07-06T02:57:18;20.50;92.20
1830;DHT22;914;48.118;11.600;2022-07-06T02:59:44;20.50;92.20
1830;DHT22;914;48.118;11.600;2022-07-06T03:02:11;20.30;92.60
1830;DHT22;914;48.118;11.600;2022-07-06T03:04:37;20.10;92.80
1830;DHT22;914;48.118;11.600;2022-07-06T03:07:03;20.20;92.80
1830;DHT22;914;48.118;11.600;2022-07-06T03:09:29;20.30;92.70
1830;DHT22;914;48.118;11.600;2022-07-06T03:11:55;20.40;92.50
1830;DHT22;914;48.118;11.600;2022-07-06T03:14:20;20.50;92.20
1830;DHT22;914;48.118;11.600;2022-07-06T03:16:46;20.50;92.20
1830;DHT22;914;48.118;11.600;2022-07-06T03:19:12;20.50;92.10
1830;DHT22;914;48.118;11.600;2022-07-06T03:21:37;20.50;92.10
1830;DHT22;914;48.118;11.600;2022-07-06T03:24:03;20.50;92.10
1830;DHT22;914;48.118;11.600;2022-07-06T03:26:29;20.50;91.90
1830;DHT22;914;48.118;11.600;2022-07-06T03:28:55;20.50;92.20
1830;DHT22;914;48.118;11.600;2022-07-06T03:31:20;20.50;92.20
1830;DHT22;914;48.118;11.600;2022-07-06T03:33:46;20.40;92.50
1830;DHT22;914;48.118;11.600;2022-07-06T03:36:12;20.40;92.60
1830;DHT22;914;48.118;11.600;2022-07-06T03:38:37;20.30;93.10
1830;DHT22;914;48.118;11.600;2022-07-06T03:41:03;20.30;92.90
1830;DHT22;914;48.118;11.600;2022-07-06T03:43:29;20.30;93.10
1830;DHT22;914;48.118;11.600;2022-07-06T03:45:54;20.40;92.90
1830;DHT22;914;48.118;11.600;2022-07-06T03:48:20;20.30;93.20
1830;DHT22;914;48.118;11.600;2022-07-06T03:50:46;20.20;93.00
1830;DHT22;914;48.118;11.600;2022-07-06T03:53:11;20.30;92.80
1830;DHT22;914;48.118;11.600;2022-07-06T03:55:37;20.30;92.70
1830;DHT22;914;48.118;11.600;2022-07-06T03:58:03;20.40;92.90
1830;DHT22;914;48.118;11.600;2022-07-06T04:00:28;20.30;92.90
1830;DHT22;914;48.118;11.600;2022-07-06T04:02:54;20.30;92.90
1830;DHT22;914;48.118;11.600;2022-07-06T04:05:20;20.40;92.90
1830;DHT22;914;48.118;11.600;2022-07-06T04:07:49;20.40;92.80
1830;DHT22;914;48.118;11.600;2022-07-06T04:10:16;20.40;93.10
1830;DHT22;914;48.118;11.600;2022-07-06T04:12:43;20.40;92.70
1830;DHT22;914;48.118;11.600;2022-07-06T04:15:10;20.40;92.80
1830;DHT22;914;48.118;11.600;2022-07-06T04:17:36;20.40;92.90
1830;DHT22;914;48.118;11.600;2022-07-06T04:20:20;20.40;93.10
1830;DHT22;914;48.118;11.600;2022-07-06T04:22:46;20.40;93.20
1830;DHT22;914;48.118;11.600;2022-07-06T04:25:12;20.30;93.20
1830;DHT22;914;48.118;11.600;2022-07-06T04:27:38;20.40;93.10
1830;DHT22;914;48.118;11.600;2022-07-06T04:30:05;20.50;93.20
1830;DHT22;914;48.118;11.600;2022-07-06T04:32:31;20.50;93.50
1830;DHT22;914;48.118;11.600;2022-07-06T04:34:57;20.50;93.50
1830;DHT22;914;48.118;11.600;2022-07-06T04:37:22;20.60;93.10
1830;DHT22;914;48.118;11.600;2022-07-06T04:39:48;20.60;93.00
1830;DHT22;914;48.118;11.600;2022-07-06T04:42:14;20.60;93.40
1830;DHT22;914;48.118;11.600;2022-07-06T04:44:40;20.70;93.40
1830;DHT22;914;48.118;11.600;2022-07-06T04:47:05;20.80;93.20
1830;DHT22;914;48.118;11.600;2022-07-06T04:49:31;20.80;93.10
1830;DHT22;914;48.118;11.600;2022-07-06T04:51:57;20.90;93.20
1830;DHT22;914;48.118;11.600;2022-07-06T04:54:22;20.90;93.40
1830;DHT22;914;48.118;11.600;2022-07-06T04:56:48;21.00;93.00
1830;DHT22;914;48.118;11.600;2022-07-06T04:59:14;21.00;93.10
1830;DHT22;914;48.118;11.600;2022-07-06T05:01:40;21.00;93.40
1830;DHT22;914;48.118;11.600;2022-07-06T05:04:06;21.00;93.20
1830;DHT22;914;48.118;11.600;2022-07-06T05:06:32;21.00;93.00
1830;DHT22;914;48.118;11.600;2022-07-06T05:08:58;21.00;93.20
1830;DHT22;914;48.118;11.600;2022-07-06T05:11:25;21.00;93.90
1830;DHT22;914;48.118;11.600;2022-07-06T05:13:51;21.00;93.80
1830;DHT22;914;48.118;11.600;2022-07-06T05:16:17;21.00;94.10
1830;DHT22;914;48.118;11.600;2022-07-06T05:18:42;20.90;94.10
1830;DHT22;914;48.118;11.600;2022-07-06T05:21:08;21.00;93.90
1830;DHT22;914;48.118;11.600;2022-07-06T05:23:34;21.10;93.90
1830;DHT22;914;48.118;11.600;2022-07-06T05:25:59;21.10;93.90
1830;DHT22;914;48.118;11.600;2022-07-06T05:28:25;21.30;94.00
1830;DHT22;914;48.118;11.600;2022-07-06T05:30:51;21.20;94.00
1830;DHT22;914;48.118;11.600;2022-07-06T05:33:16;21.40;93.80
1830;DHT22;914;48.118;11.600;2022-07-06T05:35:42;21.60;93.20
1830;DHT22;914;48.118;11.600;2022-07-06T05:38:07;21.70;92.90
1830;DHT22;914;48.118;11.600;2022-07-06T05:40:33;21.80;93.30
1830;DHT22;914;48.118;11.600;2022-07-06T05:42:59;22.10;93.00
1830;DHT22;914;48.118;11.600;2022-07-06T05:45:24;21.70;93.40
1830;DHT22;914;48.118;11.600;2022-07-06T05:47:51;21.80;92.60
1830;DHT22;914;48.118;11.600;2022-07-06T05:50:35;21.70;92.80
1830;DHT22;914;48.118;11.600;2022-07-06T05:53:03;22.00;92.30
1830;DHT22;914;48.118;11.600;2022-07-06T05:55:29;22.20;91.50
1830;DHT22;914;48.118;11.600;2022-07-06T05:57:54;22.30;91.60
1830;DHT22;914;48.118;11.600;2022-07-06T06:00:22;22.40;91.20
1830;DHT22;914;48.118;11.600;2022-07-06T06:02:48;22.60;90.70
1830;DHT22;914;48.118;11.600;2022-07-06T06:05:14;22.20;91.20
1830;DHT22;914;48.118;11.600;2022-07-06T06:07:40;22.10;91.00
1830;DHT22;914;48.118;11.600;2022-07-06T06:10:09;21.90;91.10
1830;DHT22;914;48.118;11.600;2022-07-06T06:12:36;21.80;91.70
1830;DHT22;914;48.118;11.600;2022-07-06T06:15:02;21.90;91.50
1830;DHT22;914;48.118;11.600;2022-07-06T06:17:28;22.20;91.00
1830;DHT22;914;48.118;11.600;2022-07-06T06:19:54;22.20;91.00
1830;DHT22;914;48.118;11.600;2022-07-06T06:22:20;22.60;90.60
1830;DHT22;914;48.118;11.600;2022-07-06T06:24:46;22.50;91.20
1830;DHT22;914;48.118;11.600;2022-07-06T06:27:12;22.50;91.40
1830;DHT22;914;48.118;11.600;2022-07-06T06:29:37;22.10;91.60
1830;DHT22;914;48.118;11.600;2022-07-06T06:32:03;22.10;91.40
1830;DHT22;914;48.118;11.600;2022-07-06T06:34:31;22.10;91.70
1830;DHT22;914;48.118;11.600;2022-07-06T06:36:57;22.30;90.70
1830;DHT22;914;48.118;11.600;2022-07-06T06:39:23;21.90;90.70
1830;DHT22;914;48.118;11.600;2022-07-06T06:41:48;22.30;90.70
1830;DHT22;914;48.118;11.600;2022-07-06T06:44:14;22.40;90.80
1830;DHT22;914;48.118;11.600;2022-07-06T06:46:40;22.20;91.00
1830;DHT22;914;48.118;11.600;2022-07-06T06:49:06;22.50;90.80
1830;DHT22;914;48.118;11.600;2022-07-06T06:51:32;22.70;90.60
1830;DHT22;914;48.118;11.600;2022-07-06T06:53:58;22.80;90.00
1830;DHT22;914;48.118;11.600;2022-07-06T06:56:23;22.90;89.30
1830;DHT22;914;48.118;11.600;2022-07-06T06:58:49;22.80;89.10
1830;DHT22;914;48.118;11.600;2022-07-06T07:01:15;23.00;88.70
1830;DHT22;914;48.118;11.600;2022-07-06T07:03:40;23.10;87.70
1830;DHT22;914;48.118;11.600;2022-07-06T07:06:06;23.00;88.30
1830;DHT22;914;48.118;11.600;2022-07-06T07:08:32;22.70;86.90
1830;DHT22;914;48.118;11.600;2022-07-06T07:10:58;22.20;88.00
1830;DHT22;914;48.118;11.600;2022-07-06T07:13:23;22.40;89.10
1830;DHT22;914;48.118;11.600;2022-07-06T07:15:49;22.80;88.70
1830;DHT22;914;48.118;11.600;2022-07-06T07:18:15;22.90;87.30
1830;DHT22;914;48.118;11.600;2022-07-06T07:20:40;23.00;86.10
1830;DHT22;914;48.118;11.600;2022-07-06T07:23:06;23.20;86.50
1830;DHT22;914;48.118;11.600;2022-07-06T07:25:32;23.40;84.90
1830;DHT22;914;48.118;11.600;2022-07-06T07:27:57;23.30;87.60
1830;DHT22;914;48.118;11.600;2022-07-06T07:30:23;23.40;85.00
1830;DHT22;914;48.118;11.600;2022-07-06T07:32:49;23.60;84.50
1830;DHT22;914;48.118;11.600;2022-07-06T07:35:14;23.90;84.10
1830;DHT22;914;48.118;11.600;2022-07-06T07:37:40;24.30;82.90
1830;DHT22;914;48.118;11.600;2022-07-06T07:40:06;24.40;82.70
1830;DHT22;914;48.118;11.600;2022-07-06T07:42:32;24.40;81.40
1830;DHT22;914;48.118;11.600;2022-07-06T07:44:58;24.20;82.20
1830;DHT22;914;48.118;11.600;2022-07-06T07:47:24;24.20;82.80
1830;DHT22;914;48.118;11.600;2022-07-06T07:49:49;24.30;82.00
1830;DHT22;914;48.118;11.600;2022-07-06T07:52:15;24.10;81.30
1830;DHT22;914;48.118;11.600;2022-07-06T07:54:41;24.10;82.50
1830;DHT22;914;48.118;11.600;2022-07-06T07:57:07;24.10;81.70
1830;DHT22;914;48.118;11.600;2022-07-06T07:59:32;24.30;81.20
1830;DHT22;914;48.118;11.600;2022-07-06T08:01:58;24.40;80.60
1830;DHT22;914;48.118;11.600;2022-07-06T08:04:24;24.60;80.30
1830;DHT22;914;48.118;11.600;2022-07-06T08:06:49;24.60;78.20
1830;DHT22;914;48.118;11.600;2022-07-06T08:09:15;24.50;78.80
1830;DHT22;914;48.118;11.600;2022-07-06T08:11:42;24.10;79.50
1830;DHT22;914;48.118;11.600;2022-07-06T08:14:08;24.00;78.10
1830;DHT22;914;48.118;11.600;2022-07-06T08:16:34;23.70;76.40
1830;DHT22;914;48.118;11.600;2022-07-06T08:18:59;24.00;79.30
1830;DHT22;914;48.118;11.600;2022-07-06T08:21:26;24.00;77.40
1830;DHT22;914;48.118;11.600;2022-07-06T08:23:52;24.20;76.40
1830;DHT22;914;48.118;11.600;2022-07-06T08:26:19;24.10;76.40
1830;DHT22;914;48.118;11.600;2022-07-06T08:28:45;24.40;77.60
1830;DHT22;914;48.118;11.600;2022-07-06T08:31:10;24.60;77.40
1830;DHT22;914;48.118;11.600;2022-07-06T08:33:36;24.60;78.80
1830;DHT22;914;48.118;11.600;2022-07-06T08:36:02;24.80;78.30
1830;DHT22;914;48.118;11.600;2022-07-06T08:38:27;25.00;77.80
1830;DHT22;914;48.118;11.600;2022-07-06T08:40:54;24.80;76.90
1830;DHT22;914;48.118;11.600;2022-07-06T08:43:20;24.80;79.50
1830;DHT22;914;48.118;11.600;2022-07-06T08:45:49;25.10;78.90
1830;DHT22;914;48.118;11.600;2022-07-06T08:48:15;25.00;77.40
1830;DHT22;914;48.118;11.600;2022-07-06T08:50:41;25.10;77.60
1830;DHT22;914;48.118;11.600;2022-07-06T08:53:07;25.00;78.40
1830;DHT22;914;48.118;11.600;2022-07-06T08:55:33;25.00;77.90
1830;DHT22;914;48.118;11.600;2022-07-06T08:57:59;25.20;79.90
1830;DHT22;914;48.118;11.600;2022-07-06T09:00:25;25.50;78.40
1830;DHT22;914;48.118;11.600;2022-07-06T09:02:51;25.80;78.50
1830;DHT22;914;48.118;11.600;2022-07-06T09:05:22;25.30;75.00
1830;DHT22;914;48.118;11.600;2022-07-06T09:07:50;25.30;77.60
1830;DHT22;914;48.118;11.600;2022-07-06T09:10:18;25.40;77.50
1830;DHT22;914;48.118;11.600;2022-07-06T09:12:44;25.40;74.90
1830;DHT22;914;48.118;11.600;2022-07-06T09:15:10;25.30;75.40
1830;DHT22;914;48.118;11.600;2022-07-06T09:17:38;25.10;74.60
1830;DHT22;914;48.118;11.600;2022-07-06T09:20:07;25.00;75.30
1830;DHT22;914;48.118;11.600;2022-07-06T09:22:34;25.20;74.30
1830;DHT22;914;48.118;11.600;2022-07-06T09:25:11;25.10;76.00
1830;DHT22;914;48.118;11.600;2022-07-06T09:30:09;25.20;77.00
1830;DHT22;914;48.118;11.600;2022-07-06T09:32:39;24.90;77.00
1830;DHT22;914;48.118;11.600;2022-07-06T09:35:06;25.30;76.70
1830;DHT22;914;48.118;11.600;2022-07-06T09:37:32;25.50;75.90
1830;DHT22;914;48.118;11.600;2022-07-06T09:39:57;25.70;74.80
1830;DHT22;914;48.118;11.600;2022-07-06T09:42:26;25.80;77.00
1830;DHT22;914;48.118;11.600;2022-07-06T09:44:52;25.50;76.40
1830;DHT22;914;48.118;11.600;2022-07-06T09:47:18;25.10;77.10
1830;DHT22;914;48.118;11.600;2022-07-06T09:49:45;25.20;80.00
1830;DHT22;914;48.118;11.600;2022-07-06T09:52:13;25.30;76.70
1830;DHT22;914;48.118;11.600;2022-07-06T09:54:40;25.40;77.10
1830;DHT22;914;48.118;11.600;2022-07-06T09:57:06;25.10;77.50
1830;DHT22;914;48.118;11.600;2022-07-06T09:59:34;25.50;76.60
1830;DHT22;914;48.118;11.600;2022-07-06T10:02:02;25.90;75.60
1830;DHT22;914;48.118;11.600;2022-07-06T10:04:29;26.40;75.60
1830;DHT22;914;48.118;11.600;2022-07-06T10:06:56;26.70;73.50
1830;DHT22;914;48.118;11.600;2022-07-06T10:09:25;26.50;72.60
1830;DHT22;914;48.118;11.600;2022-07-06T10:11:53;26.20;71.70
1830;DHT22;914;48.118;11.600;2022-07-06T10:14:24;26.30;72.80
1830;DHT22;914;48.118;11.600;2022-07-06T10:16:51;26.60;73.50
1830;DHT22;914;48.118;11.600;2022-07-06T10:19:19;26.70;72.60
1830;DHT22;914;48.118;11.600;2022-07-06T10:21:45;26.80;72.30
1830;DHT22;914;48.118;11.600;2022-07-06T10:24:12;27.10;70.90
1830;DHT22;914;48.118;11.600;2022-07-06T10:26:38;27.20;70.90
1830;DHT22;914;48.118;11.600;2022-07-06T10:29:06;26.80;69.20
1830;DHT22;914;48.118;11.600;2022-07-06T10:31:34;26.90;69.40
1830;DHT22;914;48.118;11.600;2022-07-06T10:34:02;26.80;70.20
1830;DHT22;914;48.118;11.600;2022-07-06T10:36:29;26.80;70.90
1830;DHT22;914;48.118;11.600;2022-07-06T10:38:55;26.90;69.80
1830;DHT22;914;48.118;11.600;2022-07-06T10:41:31;27.00;73.00
1830;DHT22;914;48.118;11.600;2022-07-06T10:43:57;27.20;71.50
1830;DHT22;914;48.118;11.600;2022-07-06T10:46:27;27.40;70.50
1830;DHT22;914;48.118;11.600;2022-07-06T10:48:54;26.90;70.50
1830;DHT22;914;48.118;11.600;2022-07-06T10:51:24;27.00;71.00
1830;DHT22;914;48.118;11.600;2022-07-06T10:54:04;26.70;68.80
1830;DHT22;914;48.118;11.600;2022-07-06T10:56:39;26.80;70.90
1830;DHT22;914;48.118;11.600;2022-07-06T10:59:16;26.90;69.40
1830;DHT22;914;48.118;11.600;2022-07-06T11:04:41;26.60;69.00
1830;DHT22;914;48.118;11.600;2022-07-06T11:07:10;26.80;71.20
1830;DHT22;914;48.118;11.600;2022-07-06T11:09:36;26.90;72.20
1830;DHT22;914;48.118;11.600;2022-07-06T11:12:15;27.00;69.30
1830;DHT22;914;48.118;11.600;2022-07-06T11:14:42;26.90;68.50
1830;DHT22;914;48.118;11.600;2022-07-06T11:17:10;27.10;70.80
1830;DHT22;914;48.118;11.600;2022-07-06T11:19:36;27.10;68.50
1830;DHT22;914;48.118;11.600;2022-07-06T11:22:09;26.60;68.40
1830;DHT22;914;48.118;11.600;2022-07-06T11:24:39;26.60;69.10
1830;DHT22;914;48.118;11.600;2022-07-06T11:27:05;26.90;70.50
1830;DHT22;914;48.118;11.600;2022-07-06T11:29:35;27.30;67.10
1830;DHT22;914;48.118;11.600;2022-07-06T11:32:03;27.30;67.00
1830;DHT22;914;48.118;11.600;2022-07-06T11:34:34;27.60;66.40
1830;DHT22;914;48.118;11.600;2022-07-06T11:37:08;28.00;66.70
1830;DHT22;914;48.118;11.600;2022-07-06T11:39:42;27.50;68.20
1830;DHT22;914;48.118;11.600;2022-07-06T11:42:09;27.50;67.10
1830;DHT22;914;48.118;11.600;2022-07-06T11:44:36;27.80;68.90
1830;DHT22;914;48.118;11.600;2022-07-06T11:47:03;28.20;64.90
1830;DHT22;914;48.118;11.600;2022-07-06T11:49:33;28.10;67.00
1830;DHT22;914;48.118;11.600;2022-07-06T11:51:59;28.20;68.20
1830;DHT22;914;48.118;11.600;2022-07-06T11:54:25;28.30;67.60
1830;DHT22;914;48.118;11.600;2022-07-06T11:56:56;28.50;65.40
1830;DHT22;914;48.118;11.600;2022-07-06T11:59:28;28.00;65.90
1830;DHT22;914;48.118;11.600;2022-07-06T12:04:31;27.40;67.20
1830;DHT22;914;48.118;11.600;2022-07-06T12:07:05;27.50;67.30
1830;DHT22;914;48.118;11.600;2022-07-06T12:09:32;27.70;64.40
1830;DHT22;914;48.118;11.600;2022-07-06T12:11:58;27.10;65.40
1830;DHT22;914;48.118;11.600;2022-07-06T12:14:28;27.00;68.40
1830;DHT22;914;48.118;11.600;2022-07-06T12:16:54;27.50;68.00
1830;DHT22;914;48.118;11.600;2022-07-06T12:19:22;27.70;66.20
1830;DHT22;914;48.118;11.600;2022-07-06T12:21:49;28.10;63.70
1830;DHT22;914;48.118;11.600;2022-07-06T12:24:26;28.00;62.90
1830;DHT22;914;48.118;11.600;2022-07-06T12:26:53;28.40;64.90
1830;DHT22;914;48.118;11.600;2022-07-06T12:29:20;28.20;65.20
1830;DHT22;914;48.118;11.600;2022-07-06T12:31:52;28.50;65.20
1830;DHT22;914;48.118;11.600;2022-07-06T12:34:20;28.70;62.50
1830;DHT22;914;48.118;11.600;2022-07-06T12:36:52;28.20;62.00
1830;DHT22;914;48.118;11.600;2022-07-06T12:39:28;28.10;61.50
1830;DHT22;914;48.118;11.600;2022-07-06T12:42:02;27.60;60.00
1830;DHT22;914;48.118;11.600;2022-07-06T12:44:29;28.20;62.70
1830;DHT22;914;48.118;11.600;2022-07-06T12:47:05;28.50;61.60
1830;DHT22;914;48.118;11.600;2022-07-06T12:49:32;28.40;61.60
1830;DHT22;914;48.118;11.600;2022-07-06T12:54:30;29.40;61.70
1830;DHT22;914;48.118;11.600;2022-07-06T12:57:04;28.40;59.80
1830;DHT22;914;48.118;11.600;2022-07-06T12:59:34;28.00;61.90
1830;DHT22;914;48.118;11.600;2022-07-06T13:02:00;27.90;62.40
1830;DHT22;914;48.118;11.600;2022-07-06T13:04:28;28.80;61.00
1830;DHT22;914;48.118;11.600;2022-07-06T13:06:54;29.70;60.00
1830;DHT22;914;48.118;11.600;2022-07-06T13:09:21;30.10;58.00
1830;DHT22;914;48.118;11.600;2022-07-06T13:11:50;30.70;56.90
1830;DHT22;914;48.118;11.600;2022-07-06T13:14:17;31.70;57.70
1830;DHT22;914;48.118;11.600;2022-07-06T13:16:44;31.40;56.60
1830;DHT22;914;48.118;11.600;2022-07-06T13:19:10;30.30;57.60
1830;DHT22;914;48.118;11.600;2022-07-06T13:21:35;30.40;58.70
1830;DHT22;914;48.118;11.600;2022-07-06T13:24:02;29.50;58.80
1830;DHT22;914;48.118;11.600;2022-07-06T13:26:28;29.10;60.40
1830;DHT22;914;48.118;11.600;2022-07-06T13:28:53;28.60;60.40
1830;DHT22;914;48.118;11.600;2022-07-06T13:31:19;28.50;60.30
1830;DHT22;914;48.118;11.600;2022-07-06T13:33:44;28.70;60.40
1830;DHT22;914;48.118;11.600;2022-07-06T13:36:10;29.20;58.70
1830;DHT22;914;48.118;11.600;2022-07-06T13:38:36;30.00;57.60
1830;DHT22;914;48.118;11.600;2022-07-06T13:41:01;30.60;57.50
1830;DHT22;914;48.118;11.600;2022-07-06T13:43:27;30.90;57.40
1830;DHT22;914;48.118;11.600;2022-07-06T13:46:03;30.50;57.20
1830;DHT22;914;48.118;11.600;2022-07-06T13:48:28;30.60;56.40
1830;DHT22;914;48.118;11.600;2022-07-06T13:50:55;30.90;56.80
1830;DHT22;914;48.118;11.600;2022-07-06T13:53:20;31.20;55.30
1830;DHT22;914;48.118;11.600;2022-07-06T13:55:46;30.80;56.80
1830;DHT22;914;48.118;11.600;2022-07-06T13:58:12;30.80;56.30
1830;DHT22;914;48.118;11.600;2022-07-06T14:00:37;30.70;57.00
1830;DHT22;914;48.118;11.600;2022-07-06T14:03:03;30.60;57.00
1830;DHT22;914;48.118;11.600;2022-07-06T14:05:29;30.60;56.70
1830;DHT22;914;48.118;11.600;2022-07-06T14:07:55;29.20;56.60
1830;DHT22;914;48.118;11.600;2022-07-06T14:10:21;28.20;58.20
1830;DHT22;914;48.118;11.600;2022-07-06T14:12:46;28.10;60.50
1830;DHT22;914;48.118;11.600;2022-07-06T14:15:12;28.50;61.30
1830;DHT22;914;48.118;11.600;2022-07-06T14:17:37;28.80;62.30
1830;DHT22;914;48.118;11.600;2022-07-06T14:20:03;28.60;60.10
1830;DHT22;914;48.118;11.600;2022-07-06T14:22:30;28.10;59.30
1830;DHT22;914;48.118;11.600;2022-07-06T14:24:56;27.90;59.60
1830;DHT22;914;48.118;11.600;2022-07-06T14:27:21;28.00;61.40
1830;DHT22;914;48.118;11.600;2022-07-06T14:29:47;27.90;58.80
1830;DHT22;914;48.118;11.600;2022-07-06T14:32:12;27.70;59.10
1830;DHT22;914;48.118;11.600;2022-07-06T14:34:38;27.40;60.40
1830;DHT22;914;48.118;11.600;2022-07-06T14:37:04;27.10;62.10
1830;DHT22;914;48.118;11.600;2022-07-06T14:39:29;27.10;60.70
1830;DHT22;914;48.118;11.600;2022-07-06T14:41:55;27.30;60.70
1830;DHT22;914;48.118;11.600;2022-07-06T14:44:21;27.60;62.70
1830;DHT22;914;48.118;11.600;2022-07-06T14:46:47;27.40;60.80
1830;DHT22;914;48.118;11.600;2022-07-06T14:49:12;27.40;60.30
1830;DHT22;914;48.118;11.600;2022-07-06T14:51:38;27.50;62.60
1830;DHT22;914;48.118;11.600;2022-07-06T14:54:03;28.00;61.70
1830;DHT22;914;48.118;11.600;2022-07-06T14:56:29;28.30;60.70
1830;DHT22;914;48.118;11.600;2022-07-06T14:58:54;28.20;59.40
1830;DHT22;914;48.118;11.600;2022-07-06T15:01:20;28.40;59.90
1830;DHT22;914;48.118;11.600;2022-07-06T15:03:46;28.40;59.50
1830;DHT22;914;48.118;11.600;2022-07-06T15:06:12;28.00;59.40
1830;DHT22;914;48.118;11.600;2022-07-06T15:08:37;27.90;59.90
1830;DHT22;914;48.118;11.600;2022-07-06T15:11:03;27.90;60.00
1830;DHT22;914;48.118;11.600;2022-07-06T15:13:29;27.70;59.80
1830;DHT22;914;48.118;11.600;2022-07-06T15:15:54;27.50;59.40
1830;DHT22;914;48.118;11.600;2022-07-06T15:18:20;28.10;58.70
1830;DHT22;914;48.118;11.600;2022-07-06T15:20:46;28.40;59.50
1830;DHT22;914;48.118;11.600;2022-07-06T15:23:12;28.60;58.30
1830;DHT22;914;48.118;11.600;2022-07-06T15:25:38;28.20;58.20
1830;DHT22;914;48.118;11.600;2022-07-06T15:28:04;28.10;57.80
1830;DHT22;914;48.118;11.600;2022-07-06T15:30:29;27.90;59.10
1830;DHT22;914;48.118;11.600;2022-07-06T15:32:58;27.90;58.20
1830;DHT22;914;48.118;11.600;2022-07-06T15:35:24;27.70;58.20
1830;DHT22;914;48.118;11.600;2022-07-06T15:37:50;27.50;59.80
1830;DHT22;914;48.118;11.600;2022-07-06T15:40:15;27.60;58.30
1830;DHT22;914;48.118;11.600;2022-07-06T15:42:46;27.10;58.50
1830;DHT22;914;48.118;11.600;2022-07-06T15:45:12;27.50;60.50
1830;DHT22;914;48.118;11.600;2022-07-06T15:47:39;27.20;59.50
1830;DHT22;914;48.118;11.600;2022-07-06T15:50:06;27.10;60.20
1830;DHT22;914;48.118;11.600;2022-07-06T15:52:32;27.30;60.50
1830;DHT22;914;48.118;11.600;2022-07-06T15:54:58;27.60;60.80
1830;DHT22;914;48.118;11.600;2022-07-06T15:57:23;27.70;59.70
1830;DHT22;914;48.118;11.600;2022-07-06T15:59:49;27.40;59.30
1830;DHT22;914;48.118;11.600;2022-07-06T16:02:15;27.60;60.70
1830;DHT22;914;48.118;11.600;2022-07-06T16:04:41;27.70;57.90
1830;DHT22;914;48.118;11.600;2022-07-06T16:07:06;27.80;59.00
1830;DHT22;914;48.118;11.600;2022-07-06T16:09:32;27.90;58.70